Aérodrome :
LOGIN :

S'inscrire | Disclaimer

   EN    FR    IT 

 










Légende :    VFR   VFR Marginal   IFR   IFR Intensif   IFR Très Intensif
Visi : 
Plafond : 
>= 8 km
>= 3000ft
5 à 8 km
1000 à 3000 ft
1500m à 5 km
500 à 1000 ft
800 à 1500m
200 à 500 ft
< 800m
< 200 ft
Symboles :   Orages  Brouillard  Fortes neiges  Fortes précipitations  Vent > 20 kt
SIGMETs :   Divers  Orages  Givrage  Turbulence  Onde Orograph.  Cendres Volcan.






- Altitude de l'aérodrome : 359 ft
- Code IATA : BVA


LFOB - Beauvais

DERNIER METAR :
  • 110430Z AUTO VRB02KT 9999 2400 VV/// 04/04 Q1008 TEMPO 0500 FG BECMG NSC

METARs EXPIRÉS :
  • 110400Z AUTO 34002KT 9999 0700 R30/1100D R12/P5000 BCFG VV/// 05/05 Q1008 TEMPO 0500 FG BECMG NSC
  • 110330Z AUTO 00000KT 2800 0500 R30/0900D R12/P5000 BCFG NSC 05/04 Q1008 TEMPO 4000 BR
  • 110300Z AUTO 11002KT 7000 NSC 05/04 Q1007 TEMPO 4000 BR
  • 110230Z AUTO VRB02KT CAVOK 05/05 Q1007 TEMPO 4000 BR
  • 110200Z AUTO 00000KT CAVOK 05/04 Q1007 NOSIG

TAF AMD TAF LFOB
Valide du 11 à 03h jusqu'au 12 à 00h UTC


110341Z 1103/1124 VRB02KT 4000 BR NSC
TEMPO 1103/1106 0500 FG
BECMG 1105/1107 9999 NSW
BECMG 1108/1111 25012KT
TEMPO 1112/1117 3000 SHRA BKN030CB
ATIS : +33 3 44 11 49 28



MET'MAP, la Météo Aéronautique d'un coup d'oeil ! - Copyright ORBIFLY Décembre 2007 - Disclaimer

ORBIFLY MET'MAP TEAM :

Programmation & Développement : Alexandra Zaïnal
Sur une idée originale de : Baudouin d'Aumeries
Assistance à la programmation : Marc-Olivier Méhu
Soutien technique & logistique : Manuel Goepfert

Contact : metmap@orbifly.com




SOURCES & CREDITS :

   NOAA